sensor_id;sensor_type;location;lat;lon;timestamp;temperature;humidity
15926;DHT22;8062;53.882;10.642;2024-02-28T00:00:22;3.20;99.90
15926;DHT22;8062;53.882;10.642;2024-02-28T00:01:52;3.20;99.90
15926;DHT22;8062;53.882;10.642;2024-02-28T00:03:11;3.30;99.90
15926;DHT22;8062;53.882;10.642;2024-02-28T00:04:31;3.20;99.90
15926;DHT22;8062;53.882;10.642;2024-02-28T00:05:50;3.20;99.90
15926;DHT22;8062;53.882;10.642;2024-02-28T00:07:09;3.30;99.90
15926;DHT22;8062;53.882;10.642;2024-02-28T00:08:29;3.30;99.90
15926;DHT22;8062;53.882;10.642;2024-02-28T00:09:48;3.30;99.90
15926;DHT22;8062;53.882;10.642;2024-02-28T00:11:08;3.30;99.90
15926;DHT22;8062;53.882;10.642;2024-02-28T00:12:27;3.20;99.90
15926;DHT22;8062;53.882;10.642;2024-02-28T00:13:47;3.30;99.90
15926;DHT22;8062;53.882;10.642;2024-02-28T00:15:07;3.30;99.90
15926;DHT22;8062;53.882;10.642;2024-02-28T00:16:30;3.30;99.90
15926;DHT22;8062;53.882;10.642;2024-02-28T00:17:52;3.30;99.90
15926;DHT22;8062;53.882;10.642;2024-02-28T00:19:13;3.30;99.90
15926;DHT22;8062;53.882;10.642;2024-02-28T00:20:32;3.30;99.90
15926;DHT22;8062;53.882;10.642;2024-02-28T00:21:52;3.30;99.90
15926;DHT22;8062;53.882;10.642;2024-02-28T00:23:12;3.30;99.90
15926;DHT22;8062;53.882;10.642;2024-02-28T00:24:31;3.30;99.90
15926;DHT22;8062;53.882;10.642;2024-02-28T00:25:50;3.20;99.90
15926;DHT22;8062;53.882;10.642;2024-02-28T00:27:10;3.20;99.90
15926;DHT22;8062;53.882;10.642;2024-02-28T00:28:29;3.20;99.90
15926;DHT22;8062;53.882;10.642;2024-02-28T00:29:49;3.20;99.90
15926;DHT22;8062;53.882;10.642;2024-02-28T00:31:09;3.20;99.90
15926;DHT22;8062;53.882;10.642;2024-02-28T00:32:28;3.20;99.90
15926;DHT22;8062;53.882;10.642;2024-02-28T00:33:48;3.20;99.90
15926;DHT22;8062;53.882;10.642;2024-02-28T00:35:07;3.20;99.90
15926;DHT22;8062;53.882;10.642;2024-02-28T00:36:27;3.20;99.90
15926;DHT22;8062;53.882;10.642;2024-02-28T00:37:46;3.20;99.90
15926;DHT22;8062;53.882;10.642;2024-02-28T00:39:06;3.30;99.90
15926;DHT22;8062;53.882;10.642;2024-02-28T00:40:25;3.30;99.90
15926;DHT22;8062;53.882;10.642;2024-02-28T00:41:44;3.30;99.90
15926;DHT22;8062;53.882;10.642;2024-02-28T00:43:04;3.30;99.90
15926;DHT22;8062;53.882;10.642;2024-02-28T00:44:24;3.30;99.90
15926;DHT22;8062;53.882;10.642;2024-02-28T00:45:43;3.20;99.90
15926;DHT22;8062;53.882;10.642;2024-02-28T00:47:03;3.20;99.90
15926;DHT22;8062;53.882;10.642;2024-02-28T00:48:23;3.20;99.90
15926;DHT22;8062;53.882;10.642;2024-02-28T00:49:43;3.20;99.90
15926;DHT22;8062;53.882;10.642;2024-02-28T00:51:03;3.10;99.90
15926;DHT22;8062;53.882;10.642;2024-02-28T00:52:22;3.20;99.90
15926;DHT22;8062;53.882;10.642;2024-02-28T00:53:44;3.10;99.90
15926;DHT22;8062;53.882;10.642;2024-02-28T00:55:04;3.20;99.90
15926;DHT22;8062;53.882;10.642;2024-02-28T00:56:24;3.10;99.90
15926;DHT22;8062;53.882;10.642;2024-02-28T00:57:44;3.20;99.90
15926;DHT22;8062;53.882;10.642;2024-02-28T00:59:04;3.20;99.90
15926;DHT22;8062;53.882;10.642;2024-02-28T01:00:25;3.20;99.90
15926;DHT22;8062;53.882;10.642;2024-02-28T01:01:45;3.20;99.90
15926;DHT22;8062;53.882;10.642;2024-02-28T01:03:04;3.20;99.90
15926;DHT22;8062;53.882;10.642;2024-02-28T01:04:24;3.20;99.90
15926;DHT22;8062;53.882;10.642;2024-02-28T01:05:44;3.20;99.90
15926;DHT22;8062;53.882;10.642;2024-02-28T01:07:04;3.10;99.90
15926;DHT22;8062;53.882;10.642;2024-02-28T01:08:23;3.10;99.90
15926;DHT22;8062;53.882;10.642;2024-02-28T01:09:42;3.10;99.90
15926;DHT22;8062;53.882;10.642;2024-02-28T01:11:02;3.10;99.90
15926;DHT22;8062;53.882;10.642;2024-02-28T01:12:21;3.10;99.90
15926;DHT22;8062;53.882;10.642;2024-02-28T01:13:41;3.10;99.90
15926;DHT22;8062;53.882;10.642;2024-02-28T01:15:00;3.10;99.90
15926;DHT22;8062;53.882;10.642;2024-02-28T01:16:20;3.10;99.90
15926;DHT22;8062;53.882;10.642;2024-02-28T01:17:39;3.10;99.90
15926;DHT22;8062;53.882;10.642;2024-02-28T01:18:59;3.10;99.90
15926;DHT22;8062;53.882;10.642;2024-02-28T01:20:18;3.10;99.90
15926;DHT22;8062;53.882;10.642;2024-02-28T01:21:38;3.10;99.90
15926;DHT22;8062;53.882;10.642;2024-02-28T01:22:58;3.10;99.90
15926;DHT22;8062;53.882;10.642;2024-02-28T01:24:18;3.20;99.90
15926;DHT22;8062;53.882;10.642;2024-02-28T01:25:37;3.20;99.90
15926;DHT22;8062;53.882;10.642;2024-02-28T01:26:57;3.20;99.90
15926;DHT22;8062;53.882;10.642;2024-02-28T01:28:17;3.20;99.90
15926;DHT22;8062;53.882;10.642;2024-02-28T01:29:36;3.20;99.90
15926;DHT22;8062;53.882;10.642;2024-02-28T01:30:56;3.20;99.90
15926;DHT22;8062;53.882;10.642;2024-02-28T01:32:15;3.10;99.90
15926;DHT22;8062;53.882;10.642;2024-02-28T01:33:35;3.10;99.90
15926;DHT22;8062;53.882;10.642;2024-02-28T01:34:54;3.10;99.90
15926;DHT22;8062;53.882;10.642;2024-02-28T01:36:13;3.00;99.90
15926;DHT22;8062;53.882;10.642;2024-02-28T01:37:33;3.00;99.90
15926;DHT22;8062;53.882;10.642;2024-02-28T01:38:52;3.00;99.90
15926;DHT22;8062;53.882;10.642;2024-02-28T01:40:12;3.00;99.90
15926;DHT22;8062;53.882;10.642;2024-02-28T01:41:32;3.00;99.90
15926;DHT22;8062;53.882;10.642;2024-02-28T01:42:51;2.90;99.90
15926;DHT22;8062;53.882;10.642;2024-02-28T01:44:11;2.90;99.90
15926;DHT22;8062;53.882;10.642;2024-02-28T01:45:30;2.80;99.90
15926;DHT22;8062;53.882;10.642;2024-02-28T01:46:51;2.90;99.90
15926;DHT22;8062;53.882;10.642;2024-02-28T01:48:11;2.90;99.90
15926;DHT22;8062;53.882;10.642;2024-02-28T01:49:30;2.80;99.90
15926;DHT22;8062;53.882;10.642;2024-02-28T01:50:50;2.80;99.90
15926;DHT22;8062;53.882;10.642;2024-02-28T01:52:10;2.70;99.90
15926;DHT22;8062;53.882;10.642;2024-02-28T01:53:30;2.70;99.90
15926;DHT22;8062;53.882;10.642;2024-02-28T01:54:50;2.70;99.90
15926;DHT22;8062;53.882;10.642;2024-02-28T01:56:11;2.70;99.90
15926;DHT22;8062;53.882;10.642;2024-02-28T01:57:30;2.60;99.90
15926;DHT22;8062;53.882;10.642;2024-02-28T01:58:50;2.50;99.90
15926;DHT22;8062;53.882;10.642;2024-02-28T02:00:11;2.50;99.90
15926;DHT22;8062;53.882;10.642;2024-02-28T02:01:31;2.50;99.90
15926;DHT22;8062;53.882;10.642;2024-02-28T02:02:50;2.50;99.90
15926;DHT22;8062;53.882;10.642;2024-02-28T02:04:10;2.50;99.90
15926;DHT22;8062;53.882;10.642;2024-02-28T02:05:30;2.50;99.90
15926;DHT22;8062;53.882;10.642;2024-02-28T02:06:49;2.50;99.90
15926;DHT22;8062;53.882;10.642;2024-02-28T02:08:09;2.50;99.90
15926;DHT22;8062;53.882;10.642;2024-02-28T02:09:29;2.60;99.90
15926;DHT22;8062;53.882;10.642;2024-02-28T02:10:48;2.60;99.90
15926;DHT22;8062;53.882;10.642;2024-02-28T02:12:08;2.60;99.90
15926;DHT22;8062;53.882;10.642;2024-02-28T02:13:27;2.60;99.90
15926;DHT22;8062;53.882;10.642;2024-02-28T02:14:48;2.60;99.90
15926;DHT22;8062;53.882;10.642;2024-02-28T02:16:07;2.60;99.90
15926;DHT22;8062;53.882;10.642;2024-02-28T02:17:27;2.60;99.90
15926;DHT22;8062;53.882;10.642;2024-02-28T02:18:47;2.60;99.90
15926;DHT22;8062;53.882;10.642;2024-02-28T02:20:09;2.60;99.90
15926;DHT22;8062;53.882;10.642;2024-02-28T02:21:31;2.60;99.90
15926;DHT22;8062;53.882;10.642;2024-02-28T02:22:53;2.60;99.90
15926;DHT22;8062;53.882;10.642;2024-02-28T02:24:13;2.60;99.90
15926;DHT22;8062;53.882;10.642;2024-02-28T02:25:32;2.60;99.90
15926;DHT22;8062;53.882;10.642;2024-02-28T02:27:00;2.60;99.90
15926;DHT22;8062;53.882;10.642;2024-02-28T02:28:20;2.60;99.90
15926;DHT22;8062;53.882;10.642;2024-02-28T02:29:39;2.60;99.90
15926;DHT22;8062;53.882;10.642;2024-02-28T02:30:58;2.60;99.90
15926;DHT22;8062;53.882;10.642;2024-02-28T02:32:18;2.60;99.90
15926;DHT22;8062;53.882;10.642;2024-02-28T02:33:38;2.60;99.90
15926;DHT22;8062;53.882;10.642;2024-02-28T02:34:57;2.60;99.90
15926;DHT22;8062;53.882;10.642;2024-02-28T02:36:17;2.70;99.90
15926;DHT22;8062;53.882;10.642;2024-02-28T02:37:36;2.80;99.90
15926;DHT22;8062;53.882;10.642;2024-02-28T02:38:56;2.80;99.90
15926;DHT22;8062;53.882;10.642;2024-02-28T02:40:15;2.90;99.90
15926;DHT22;8062;53.882;10.642;2024-02-28T02:41:35;2.80;99.90
15926;DHT22;8062;53.882;10.642;2024-02-28T02:42:54;2.90;99.90
15926;DHT22;8062;53.882;10.642;2024-02-28T02:44:14;3.00;99.90
15926;DHT22;8062;53.882;10.642;2024-02-28T02:45:33;2.90;99.90
15926;DHT22;8062;53.882;10.642;2024-02-28T02:46:53;2.90;99.90
15926;DHT22;8062;53.882;10.642;2024-02-28T02:48:12;2.90;99.90
15926;DHT22;8062;53.882;10.642;2024-02-28T02:49:32;2.90;99.90
15926;DHT22;8062;53.882;10.642;2024-02-28T02:50:51;2.90;99.90
15926;DHT22;8062;53.882;10.642;2024-02-28T02:52:11;2.80;99.90
15926;DHT22;8062;53.882;10.642;2024-02-28T02:53:30;2.80;99.90
15926;DHT22;8062;53.882;10.642;2024-02-28T02:54:50;2.80;99.90
15926;DHT22;8062;53.882;10.642;2024-02-28T02:56:09;2.90;99.90
15926;DHT22;8062;53.882;10.642;2024-02-28T02:57:29;2.90;99.90
15926;DHT22;8062;53.882;10.642;2024-02-28T02:58:51;2.90;99.90
15926;DHT22;8062;53.882;10.642;2024-02-28T03:00:11;2.90;99.90
15926;DHT22;8062;53.882;10.642;2024-02-28T03:01:31;2.90;99.90
15926;DHT22;8062;53.882;10.642;2024-02-28T03:02:50;2.80;99.90
15926;DHT22;8062;53.882;10.642;2024-02-28T03:04:09;2.90;99.90
15926;DHT22;8062;53.882;10.642;2024-02-28T03:05:29;2.90;99.90
15926;DHT22;8062;53.882;10.642;2024-02-28T03:06:48;2.90;99.90
15926;DHT22;8062;53.882;10.642;2024-02-28T03:08:08;2.90;99.90
15926;DHT22;8062;53.882;10.642;2024-02-28T03:09:27;2.90;99.90
15926;DHT22;8062;53.882;10.642;2024-02-28T03:10:47;2.90;99.90
15926;DHT22;8062;53.882;10.642;2024-02-28T03:12:06;2.90;99.90
15926;DHT22;8062;53.882;10.642;2024-02-28T03:13:26;2.90;99.90
15926;DHT22;8062;53.882;10.642;2024-02-28T03:14:45;2.90;99.90
15926;DHT22;8062;53.882;10.642;2024-02-28T03:16:05;2.90;99.90
15926;DHT22;8062;53.882;10.642;2024-02-28T03:17:24;2.90;99.90
15926;DHT22;8062;53.882;10.642;2024-02-28T03:18:44;2.90;99.90
15926;DHT22;8062;53.882;10.642;2024-02-28T03:20:04;2.90;99.90
15926;DHT22;8062;53.882;10.642;2024-02-28T03:21:23;2.90;99.90
15926;DHT22;8062;53.882;10.642;2024-02-28T03:22:43;3.00;99.90
15926;DHT22;8062;53.882;10.642;2024-02-28T03:24:02;3.00;99.90
15926;DHT22;8062;53.882;10.642;2024-02-28T03:25:22;3.00;99.90
15926;DHT22;8062;53.882;10.642;2024-02-28T03:26:41;3.00;99.90
15926;DHT22;8062;53.882;10.642;2024-02-28T03:28:02;3.10;99.90
15926;DHT22;8062;53.882;10.642;2024-02-28T03:29:22;3.10;99.90
15926;DHT22;8062;53.882;10.642;2024-02-28T03:30:48;3.10;99.90
15926;DHT22;8062;53.882;10.642;2024-02-28T03:32:08;3.20;99.90
15926;DHT22;8062;53.882;10.642;2024-02-28T03:33:28;3.20;99.90
15926;DHT22;8062;53.882;10.642;2024-02-28T03:34:48;3.20;99.90
15926;DHT22;8062;53.882;10.642;2024-02-28T03:36:08;3.20;99.90
15926;DHT22;8062;53.882;10.642;2024-02-28T03:37:27;3.20;99.90
15926;DHT22;8062;53.882;10.642;2024-02-28T03:38:47;3.20;99.90
15926;DHT22;8062;53.882;10.642;2024-02-28T03:40:07;3.20;99.90
15926;DHT22;8062;53.882;10.642;2024-02-28T03:41:27;3.20;99.90
15926;DHT22;8062;53.882;10.642;2024-02-28T03:42:46;3.20;99.90
15926;DHT22;8062;53.882;10.642;2024-02-28T03:44:06;3.30;99.90
15926;DHT22;8062;53.882;10.642;2024-02-28T03:45:28;3.20;99.90
15926;DHT22;8062;53.882;10.642;2024-02-28T03:46:48;3.30;99.90
15926;DHT22;8062;53.882;10.642;2024-02-28T03:48:07;3.30;99.90
15926;DHT22;8062;53.882;10.642;2024-02-28T03:49:27;3.20;99.90
15926;DHT22;8062;53.882;10.642;2024-02-28T03:50:46;3.20;99.90
15926;DHT22;8062;53.882;10.642;2024-02-28T03:52:06;3.10;99.90
15926;DHT22;8062;53.882;10.642;2024-02-28T03:53:25;3.20;99.90
15926;DHT22;8062;53.882;10.642;2024-02-28T03:54:45;3.20;99.90
15926;DHT22;8062;53.882;10.642;2024-02-28T03:56:05;3.20;99.90
15926;DHT22;8062;53.882;10.642;2024-02-28T03:57:24;3.20;99.90
15926;DHT22;8062;53.882;10.642;2024-02-28T03:58:44;3.20;99.90
15926;DHT22;8062;53.882;10.642;2024-02-28T04:00:04;3.20;99.90
15926;DHT22;8062;53.882;10.642;2024-02-28T04:01:31;3.30;99.90
15926;DHT22;8062;53.882;10.642;2024-02-28T04:02:51;3.20;99.90
15926;DHT22;8062;53.882;10.642;2024-02-28T04:04:10;3.30;99.90
15926;DHT22;8062;53.882;10.642;2024-02-28T04:05:30;3.30;99.90
15926;DHT22;8062;53.882;10.642;2024-02-28T04:06:50;3.20;99.90
15926;DHT22;8062;53.882;10.642;2024-02-28T04:08:09;3.10;99.90
15926;DHT22;8062;53.882;10.642;2024-02-28T04:09:29;3.10;99.90
15926;DHT22;8062;53.882;10.642;2024-02-28T04:10:48;3.10;99.90
15926;DHT22;8062;53.882;10.642;2024-02-28T04:12:11;3.10;99.90
15926;DHT22;8062;53.882;10.642;2024-02-28T04:13:30;3.00;99.90
15926;DHT22;8062;53.882;10.642;2024-02-28T04:14:49;3.10;99.90
15926;DHT22;8062;53.882;10.642;2024-02-28T04:16:10;3.10;99.90
15926;DHT22;8062;53.882;10.642;2024-02-28T04:17:29;3.10;99.90
15926;DHT22;8062;53.882;10.642;2024-02-28T04:18:49;3.10;99.90
15926;DHT22;8062;53.882;10.642;2024-02-28T04:20:09;3.10;99.90
15926;DHT22;8062;53.882;10.642;2024-02-28T04:21:29;3.10;99.90
15926;DHT22;8062;53.882;10.642;2024-02-28T04:22:49;3.10;99.90
15926;DHT22;8062;53.882;10.642;2024-02-28T04:24:08;3.10;99.90
15926;DHT22;8062;53.882;10.642;2024-02-28T04:25:31;3.10;99.90
15926;DHT22;8062;53.882;10.642;2024-02-28T04:26:51;3.00;99.90
15926;DHT22;8062;53.882;10.642;2024-02-28T04:28:12;3.10;99.90
15926;DHT22;8062;53.882;10.642;2024-02-28T04:29:32;3.00;99.90
15926;DHT22;8062;53.882;10.642;2024-02-28T04:30:52;3.10;99.90
15926;DHT22;8062;53.882;10.642;2024-02-28T04:32:11;3.00;99.90
15926;DHT22;8062;53.882;10.642;2024-02-28T04:33:31;3.10;99.90
15926;DHT22;8062;53.882;10.642;2024-02-28T04:34:51;3.00;99.90
15926;DHT22;8062;53.882;10.642;2024-02-28T04:36:10;3.00;99.90
15926;DHT22;8062;53.882;10.642;2024-02-28T04:37:30;3.00;99.90
15926;DHT22;8062;53.882;10.642;2024-02-28T04:38:50;3.00;99.90
15926;DHT22;8062;53.882;10.642;2024-02-28T04:40:10;3.00;99.90
15926;DHT22;8062;53.882;10.642;2024-02-28T04:41:29;3.00;99.90
15926;DHT22;8062;53.882;10.642;2024-02-28T04:42:49;3.00;99.90
15926;DHT22;8062;53.882;10.642;2024-02-28T04:44:08;3.00;99.90
15926;DHT22;8062;53.882;10.642;2024-02-28T04:45:28;3.00;99.90
15926;DHT22;8062;53.882;10.642;2024-02-28T04:46:47;3.00;99.90
15926;DHT22;8062;53.882;10.642;2024-02-28T04:48:07;3.10;99.90
15926;DHT22;8062;53.882;10.642;2024-02-28T04:49:27;3.10;99.90
15926;DHT22;8062;53.882;10.642;2024-02-28T04:50:46;3.00;99.90
15926;DHT22;8062;53.882;10.642;2024-02-28T04:52:06;3.10;99.90
15926;DHT22;8062;53.882;10.642;2024-02-28T04:53:26;3.10;99.90
15926;DHT22;8062;53.882;10.642;2024-02-28T04:54:45;3.10;99.90
15926;DHT22;8062;53.882;10.642;2024-02-28T04:56:05;3.00;99.90
15926;DHT22;8062;53.882;10.642;2024-02-28T04:57:24;3.00;99.90
15926;DHT22;8062;53.882;10.642;2024-02-28T04:58:44;3.00;99.90
15926;DHT22;8062;53.882;10.642;2024-02-28T05:00:04;3.00;99.90
15926;DHT22;8062;53.882;10.642;2024-02-28T05:01:23;2.90;99.90
15926;DHT22;8062;53.882;10.642;2024-02-28T05:02:43;2.90;99.90
15926;DHT22;8062;53.882;10.642;2024-02-28T05:04:03;2.90;99.90
15926;DHT22;8062;53.882;10.642;2024-02-28T05:05:22;2.90;99.90
15926;DHT22;8062;53.882;10.642;2024-02-28T05:06:42;2.90;99.90
15926;DHT22;8062;53.882;10.642;2024-02-28T05:08:02;2.90;99.90
15926;DHT22;8062;53.882;10.642;2024-02-28T05:09:21;2.90;99.90
15926;DHT22;8062;53.882;10.642;2024-02-28T05:10:40;3.00;99.90
15926;DHT22;8062;53.882;10.642;2024-02-28T05:12:00;3.00;99.90
15926;DHT22;8062;53.882;10.642;2024-02-28T05:13:19;3.00;99.90
15926;DHT22;8062;53.882;10.642;2024-02-28T05:14:39;2.90;99.90
15926;DHT22;8062;53.882;10.642;2024-02-28T05:15:58;3.00;99.90
15926;DHT22;8062;53.882;10.642;2024-02-28T05:17:18;3.00;99.90
15926;DHT22;8062;53.882;10.642;2024-02-28T05:18:37;3.00;99.90
15926;DHT22;8062;53.882;10.642;2024-02-28T05:19:57;3.00;99.90
15926;DHT22;8062;53.882;10.642;2024-02-28T05:21:16;3.00;99.90
15926;DHT22;8062;53.882;10.642;2024-02-28T05:22:36;3.10;99.90
15926;DHT22;8062;53.882;10.642;2024-02-28T05:23:55;3.00;99.90
15926;DHT22;8062;53.882;10.642;2024-02-28T05:25:15;3.00;99.90
15926;DHT22;8062;53.882;10.642;2024-02-28T05:26:35;3.00;99.90
15926;DHT22;8062;53.882;10.642;2024-02-28T05:27:55;3.00;99.90
15926;DHT22;8062;53.882;10.642;2024-02-28T05:29:14;3.00;99.90
15926;DHT22;8062;53.882;10.642;2024-02-28T05:30:33;3.00;99.90
15926;DHT22;8062;53.882;10.642;2024-02-28T05:31:53;3.00;99.90
15926;DHT22;8062;53.882;10.642;2024-02-28T05:33:13;3.10;99.90
15926;DHT22;8062;53.882;10.642;2024-02-28T05:34:32;3.10;99.90
15926;DHT22;8062;53.882;10.642;2024-02-28T05:35:52;3.10;99.90
15926;DHT22;8062;53.882;10.642;2024-02-28T05:37:12;3.20;99.90
15926;DHT22;8062;53.882;10.642;2024-02-28T05:38:31;3.10;99.90
15926;DHT22;8062;53.882;10.642;2024-02-28T05:39:51;3.10;99.90
15926;DHT22;8062;53.882;10.642;2024-02-28T05:41:11;3.10;99.90
15926;DHT22;8062;53.882;10.642;2024-02-28T05:42:30;3.20;99.90
15926;DHT22;8062;53.882;10.642;2024-02-28T05:43:51;3.10;99.90
15926;DHT22;8062;53.882;10.642;2024-02-28T05:45:10;3.10;99.90
15926;DHT22;8062;53.882;10.642;2024-02-28T05:46:29;3.10;99.90
15926;DHT22;8062;53.882;10.642;2024-02-28T05:47:50;3.10;99.90
15926;DHT22;8062;53.882;10.642;2024-02-28T05:49:09;3.00;99.90
15926;DHT22;8062;53.882;10.642;2024-02-28T05:50:29;3.00;99.90
15926;DHT22;8062;53.882;10.642;2024-02-28T05:51:49;3.00;99.90
15926;DHT22;8062;53.882;10.642;2024-02-28T05:53:08;3.00;99.90
15926;DHT22;8062;53.882;10.642;2024-02-28T05:54:28;3.00;99.90
15926;DHT22;8062;53.882;10.642;2024-02-28T05:55:47;3.00;99.90
15926;DHT22;8062;53.882;10.642;2024-02-28T05:57:07;3.10;99.90
15926;DHT22;8062;53.882;10.642;2024-02-28T05:58:27;3.10;99.90
15926;DHT22;8062;53.882;10.642;2024-02-28T05:59:46;3.10;99.90
15926;DHT22;8062;53.882;10.642;2024-02-28T06:01:06;3.00;99.90
15926;DHT22;8062;53.882;10.642;2024-02-28T06:02:26;3.00;99.90
15926;DHT22;8062;53.882;10.642;2024-02-28T06:03:48;2.90;99.90
15926;DHT22;8062;53.882;10.642;2024-02-28T06:05:07;3.00;99.90
15926;DHT22;8062;53.882;10.642;2024-02-28T06:06:27;3.00;99.90
15926;DHT22;8062;53.882;10.642;2024-02-28T06:07:47;3.00;99.90
15926;DHT22;8062;53.882;10.642;2024-02-28T06:09:06;3.00;99.90
15926;DHT22;8062;53.882;10.642;2024-02-28T06:10:27;3.00;99.90
15926;DHT22;8062;53.882;10.642;2024-02-28T06:11:46;3.00;99.90
15926;DHT22;8062;53.882;10.642;2024-02-28T06:13:06;2.90;99.90
15926;DHT22;8062;53.882;10.642;2024-02-28T06:14:25;2.90;99.90
15926;DHT22;8062;53.882;10.642;2024-02-28T06:15:45;2.80;99.90
15926;DHT22;8062;53.882;10.642;2024-02-28T06:17:04;2.80;99.90
15926;DHT22;8062;53.882;10.642;2024-02-28T06:18:25;2.80;99.90
15926;DHT22;8062;53.882;10.642;2024-02-28T06:19:48;2.80;99.90
15926;DHT22;8062;53.882;10.642;2024-02-28T06:21:07;2.80;99.90
15926;DHT22;8062;53.882;10.642;2024-02-28T06:22:27;2.70;99.90
15926;DHT22;8062;53.882;10.642;2024-02-28T06:23:46;2.60;99.90
15926;DHT22;8062;53.882;10.642;2024-02-28T06:25:07;2.60;99.90
15926;DHT22;8062;53.882;10.642;2024-02-28T06:26:33;2.60;99.90
15926;DHT22;8062;53.882;10.642;2024-02-28T06:27:53;2.70;99.90
15926;DHT22;8062;53.882;10.642;2024-02-28T06:29:12;2.70;99.90
15926;DHT22;8062;53.882;10.642;2024-02-28T06:30:33;2.70;99.90
15926;DHT22;8062;53.882;10.642;2024-02-28T06:31:53;2.60;99.90
15926;DHT22;8062;53.882;10.642;2024-02-28T06:33:14;2.60;99.90
15926;DHT22;8062;53.882;10.642;2024-02-28T06:34:34;2.60;99.90
15926;DHT22;8062;53.882;10.642;2024-02-28T06:35:54;2.60;99.90
15926;DHT22;8062;53.882;10.642;2024-02-28T06:37:13;2.60;99.90
15926;DHT22;8062;53.882;10.642;2024-02-28T06:38:33;2.60;99.90
15926;DHT22;8062;53.882;10.642;2024-02-28T06:39:54;2.70;99.90
15926;DHT22;8062;53.882;10.642;2024-02-28T06:41:14;2.70;99.90
15926;DHT22;8062;53.882;10.642;2024-02-28T06:42:33;2.80;99.90
15926;DHT22;8062;53.882;10.642;2024-02-28T06:43:54;2.80;99.90
15926;DHT22;8062;53.882;10.642;2024-02-28T06:45:14;3.00;99.90
15926;DHT22;8062;53.882;10.642;2024-02-28T06:46:33;3.00;99.90
15926;DHT22;8062;53.882;10.642;2024-02-28T06:47:53;3.00;99.90
15926;DHT22;8062;53.882;10.642;2024-02-28T06:49:12;3.10;99.90
15926;DHT22;8062;53.882;10.642;2024-02-28T06:50:31;3.10;99.90
15926;DHT22;8062;53.882;10.642;2024-02-28T06:51:51;3.10;99.90
15926;DHT22;8062;53.882;10.642;2024-02-28T06:53:11;3.10;99.90
15926;DHT22;8062;53.882;10.642;2024-02-28T06:54:30;3.10;99.90
15926;DHT22;8062;53.882;10.642;2024-02-28T06:55:51;3.10;99.90
15926;DHT22;8062;53.882;10.642;2024-02-28T06:57:10;3.10;99.90
15926;DHT22;8062;53.882;10.642;2024-02-28T06:58:30;3.20;99.90
15926;DHT22;8062;53.882;10.642;2024-02-28T06:59:50;3.20;99.90
15926;DHT22;8062;53.882;10.642;2024-02-28T07:01:09;3.20;99.90
15926;DHT22;8062;53.882;10.642;2024-02-28T07:02:29;3.20;99.90
15926;DHT22;8062;53.882;10.642;2024-02-28T07:03:48;3.30;99.90
15926;DHT22;8062;53.882;10.642;2024-02-28T07:05:08;3.20;99.90
15926;DHT22;8062;53.882;10.642;2024-02-28T07:06:28;3.20;99.90
15926;DHT22;8062;53.882;10.642;2024-02-28T07:07:47;3.20;99.90
15926;DHT22;8062;53.882;10.642;2024-02-28T07:09:08;3.30;99.90
15926;DHT22;8062;53.882;10.642;2024-02-28T07:10:28;3.30;99.90
15926;DHT22;8062;53.882;10.642;2024-02-28T07:11:47;3.40;99.90
15926;DHT22;8062;53.882;10.642;2024-02-28T07:13:07;3.40;99.90
15926;DHT22;8062;53.882;10.642;2024-02-28T07:14:27;3.40;99.90
15926;DHT22;8062;53.882;10.642;2024-02-28T07:15:47;3.30;99.90
15926;DHT22;8062;53.882;10.642;2024-02-28T07:17:08;3.30;99.90
15926;DHT22;8062;53.882;10.642;2024-02-28T07:18:27;3.40;99.90
15926;DHT22;8062;53.882;10.642;2024-02-28T07:19:48;3.40;99.90
15926;DHT22;8062;53.882;10.642;2024-02-28T07:21:08;3.30;99.90
15926;DHT22;8062;53.882;10.642;2024-02-28T07:22:27;3.30;99.90
15926;DHT22;8062;53.882;10.642;2024-02-28T07:23:47;3.30;99.90
15926;DHT22;8062;53.882;10.642;2024-02-28T07:25:07;3.30;99.90
15926;DHT22;8062;53.882;10.642;2024-02-28T07:26:27;3.30;99.90
15926;DHT22;8062;53.882;10.642;2024-02-28T07:27:47;3.40;99.90
15926;DHT22;8062;53.882;10.642;2024-02-28T07:29:06;3.50;99.90
15926;DHT22;8062;53.882;10.642;2024-02-28T07:30:26;3.50;99.90
15926;DHT22;8062;53.882;10.642;2024-02-28T07:31:45;3.50;99.90
15926;DHT22;8062;53.882;10.642;2024-02-28T07:33:05;3.60;99.90
15926;DHT22;8062;53.882;10.642;2024-02-28T07:34:25;3.50;99.90
15926;DHT22;8062;53.882;10.642;2024-02-28T07:35:52;3.40;99.90
15926;DHT22;8062;53.882;10.642;2024-02-28T07:37:11;3.40;99.90
15926;DHT22;8062;53.882;10.642;2024-02-28T07:38:31;3.30;99.90
15926;DHT22;8062;53.882;10.642;2024-02-28T07:39:52;3.30;99.90
15926;DHT22;8062;53.882;10.642;2024-02-28T07:41:11;3.30;99.90
15926;DHT22;8062;53.882;10.642;2024-02-28T07:42:31;3.30;99.90
15926;DHT22;8062;53.882;10.642;2024-02-28T07:43:51;3.30;99.90
15926;DHT22;8062;53.882;10.642;2024-02-28T07:45:10;3.50;99.90
15926;DHT22;8062;53.882;10.642;2024-02-28T07:46:30;3.50;99.90
15926;DHT22;8062;53.882;10.642;2024-02-28T07:47:49;3.50;99.90
15926;DHT22;8062;53.882;10.642;2024-02-28T07:49:09;3.50;99.90
15926;DHT22;8062;53.882;10.642;2024-02-28T07:50:30;3.50;99.90
15926;DHT22;8062;53.882;10.642;2024-02-28T07:51:50;3.50;99.90
15926;DHT22;8062;53.882;10.642;2024-02-28T07:53:10;3.60;99.90
15926;DHT22;8062;53.882;10.642;2024-02-28T07:54:29;3.50;99.90
15926;DHT22;8062;53.882;10.642;2024-02-28T07:55:49;3.60;99.90
15926;DHT22;8062;53.882;10.642;2024-02-28T07:57:09;3.60;99.90
15926;DHT22;8062;53.882;10.642;2024-02-28T07:58:29;3.60;99.90
15926;DHT22;8062;53.882;10.642;2024-02-28T07:59:48;3.60;99.90
15926;DHT22;8062;53.882;10.642;2024-02-28T08:01:08;3.60;99.90
15926;DHT22;8062;53.882;10.642;2024-02-28T08:02:27;3.60;99.90
15926;DHT22;8062;53.882;10.642;2024-02-28T08:03:47;3.60;99.90
15926;DHT22;8062;53.882;10.642;2024-02-28T08:05:06;3.70;99.90
15926;DHT22;8062;53.882;10.642;2024-02-28T08:06:26;3.70;99.90
15926;DHT22;8062;53.882;10.642;2024-02-28T08:07:46;3.80;99.90
15926;DHT22;8062;53.882;10.642;2024-02-28T08:09:05;3.80;99.90
15926;DHT22;8062;53.882;10.642;2024-02-28T08:10:24;3.80;99.90
15926;DHT22;8062;53.882;10.642;2024-02-28T08:11:44;3.70;99.90
15926;DHT22;8062;53.882;10.642;2024-02-28T08:13:04;3.70;99.90
15926;DHT22;8062;53.882;10.642;2024-02-28T08:14:24;3.70;99.90
15926;DHT22;8062;53.882;10.642;2024-02-28T08:15:44;3.80;99.90
15926;DHT22;8062;53.882;10.642;2024-02-28T08:17:03;3.90;99.90
15926;DHT22;8062;53.882;10.642;2024-02-28T08:18:23;3.80;99.90
15926;DHT22;8062;53.882;10.642;2024-02-28T08:19:42;3.80;99.90
15926;DHT22;8062;53.882;10.642;2024-02-28T08:21:02;4.00;99.90
15926;DHT22;8062;53.882;10.642;2024-02-28T08:22:22;4.00;99.90
15926;DHT22;8062;53.882;10.642;2024-02-28T08:23:44;4.00;99.90
15926;DHT22;8062;53.882;10.642;2024-02-28T08:25:04;4.00;99.90
15926;DHT22;8062;53.882;10.642;2024-02-28T08:26:24;4.10;99.90
15926;DHT22;8062;53.882;10.642;2024-02-28T08:27:43;4.10;99.90
15926;DHT22;8062;53.882;10.642;2024-02-28T08:29:03;4.30;99.90
15926;DHT22;8062;53.882;10.642;2024-02-28T08:30:22;4.20;99.90
15926;DHT22;8062;53.882;10.642;2024-02-28T08:31:45;4.30;99.90